• Join FlightAware (Why Join?)
  • Login
  • US Flag 
05:04PM EDT


 

Airport Tracker/Info


-or-


 

Live Flight TrackerFlight Track Log ✈ TRS9533 ✈ 02-Jul-2013 ✈ KDTW - KATL

Flight Track Log - Related Links

Times and Time Zones

All times are in EDT time to prevent confusion due to time zone crossing. See the TRS9533 flight status page for this flight to view local times or setup timezone preferences in your user account.

Time Position Orientation Groundspeed Altitude Reporting Facility
EDT Latitude Longitude Course Direction KTS MPH feet Rate Location/Type
12:20PM 42.2333 -83.3317 180° South 176 203 1,700  Level Cleveland Center
12:22PM 42.3025 -83.2361 46° Northeast 266 306 5,300 2,520 Climbing Cleveland Center
12:23PM 42.2958 -83.1544 96° East 271 312 7,900 2,100 Climbing Cleveland Center
12:24PM 42.2439 -83.0569 126° Southeast 281 323 9,600 1,500 Climbing Cleveland Center
12:25PM 42.1419 -83.0475 176° South 301 346 11,600 1,440 Climbing Cleveland Center
12:26PM 41.6512 -83.4321 180° South  Level Estimated
12:26PM 42.0578 -83.0889 200° South 308 354 13,100  Level Cleveland Center
12:27PM 41.9772 -83.1417 206° Southwest 321 369 13,900 720 Climbing Cleveland Center
12:28PM 41.8989 -83.2000 209° Southwest 321 369 14,600 600 Climbing Cleveland Center
12:29PM 41.8142 -83.2522 205° Southwest 331 381 15,100 240 Climbing Cleveland Center
12:30PM 41.7336 -83.3100 208° Southwest 331 381 15,100 -60 Level Cleveland Center
12:31PM 41.6431 -83.3453 196° South 331 381 15,000 -60 Descending Cleveland Center
12:32PM 41.5433 -83.3325 175° South 340 391 15,000  Level Cleveland Center
12:33PM 41.4422 -83.3781 199° South 366 421 15,000  Level Cleveland Center
12:34PM 41.3447 -83.4458 208° Southwest 387 445 15,000  Level Cleveland Center
12:35PM 41.2411 -83.5019 202° Southwest 398 458 15,000  Level Cleveland Center
12:36PM 41.1394 -83.5581 203° Southwest 398 458 15,000  Level Cleveland Center
12:38PM 40.9919 -83.6422 203° Southwest 400 460 15,000  Level Indianapolis Center
12:39PM 40.8903 -83.6992 203° Southwest 393 452 15,000  Level Indianapolis Center
12:40PM 40.7911 -83.7517 202° Southwest 382 440 15,000 -60 Level Indianapolis Center
12:41PM 40.6931 -83.8114 205° Southwest 333 383 14,900  Descending Indianapolis Center
12:42PM 40.6119 -83.8661 207° Southwest 325 374 15,000  Climbing Indianapolis Center
12:43PM 40.5269 -83.9103 202° Southwest 328 377 15,000  Level Indianapolis Center
12:44PM 40.4472 -83.9489 200° South 306 352 15,000 -60 Level Indianapolis Center
12:45PM 40.3889 -83.9861 206° Southwest 239 275 14,900  Descending Indianapolis Center
12:46PM 40.3322 -84.0200 205° Southwest 224 258 15,000 300 Climbing Indianapolis Center
12:47PM 40.2675 -84.0458 197° South 254 292 15,600 960 Climbing Indianapolis Center
12:48PM 40.1828 -84.0617 188° South 306 352 17,000 1,500 Climbing Indianapolis Center
12:49PM 40.0822 -84.0786 187° South 356 410 18,700 2,400 Climbing Indianapolis Center
12:50PM 39.9581 -84.0981 187° South 381 438 22,000 2,760 Climbing Indianapolis Center
12:51PM 39.8514 -84.1161 187° South 384 442 24,400 2,100 Climbing Indianapolis Center
12:52PM 39.7431 -84.1331 187° South 389 448 26,400 1,740 Climbing Indianapolis Center
12:53PM 39.6314 -84.1219 176° South 409 471 28,000 1,620 Climbing Indianapolis Center
12:54PM 39.5194 -84.0692 160° South 423 487 29,800 2,040 Climbing Indianapolis Center
12:55PM 39.4131 -84.0178 160° South 410 472 32,300 2,100 Climbing Indianapolis Center
12:56PM 39.3094 -83.9694 160° South 397 457 34,200 1,260 Climbing Indianapolis Center
12:57PM 39.2086 -83.9219 160° South 387 445 35,000 360 Climbing Indianapolis Center
12:58PM 39.0925 -83.8683 160° South 379 436 35,000  Level Indianapolis Center
12:59PM 38.9917 -83.8200 160° South 383 441 35,000  Level Indianapolis Center
01:00PM 38.8922 -83.7736 160° South 378 435 35,000  Level Indianapolis Center
01:01PM 38.7914 -83.7275 160° South 382 440 35,000  Level Indianapolis Center
01:02PM 38.6914 -83.6794 159° South 381 438 35,000  Level Indianapolis Center
01:03PM 38.5853 -83.6314 161° South 381 438 35,000  Level Indianapolis Center
01:04PM 38.4850 -83.5850 160° South 381 438 35,000  Level Indianapolis Center
01:05PM 38.3833 -83.5394 161° South 385 443 35,000  Level Indianapolis Center
01:06PM 38.2828 -83.4925 160° South 384 442 35,000  Level Indianapolis Center
01:07PM 38.1811 -83.4469 161° South 387 445 35,000  Level Indianapolis Center
01:09PM 38.0625 -83.3922 160° South 388 447 35,000  Level Indianapolis Center
01:10PM 37.9594 -83.3453 160° South 391 450 35,000  Level Indianapolis Center
01:11PM 37.8558 -83.2986 160° South 393 452 35,000  Level Indianapolis Center
01:12PM 37.7508 -83.2525 161° South 396 456 35,000  Level Indianapolis Center
01:13PM 37.6456 -83.2053 160° South 400 460 35,000 300 Level Indianapolis Center
01:14PM 37.5400 -83.1586 161° South 401 461 35,700 480 Climbing Indianapolis Center
01:15PM 37.4353 -83.1114 160° South 399 459 36,000 120 Climbing Indianapolis Center
01:16PM 37.3156 -83.0578 160° South 393 452 36,000  Level Indianapolis Center
01:17PM 37.2114 -83.0322 169° South 382 440 36,000  Level Indianapolis Center
01:18PM 37.1044 -83.0333 180° South 382 440 36,000  Level Indianapolis Center
01:19PM 36.9989 -83.0364 181° South 383 441 36,000  Level Indianapolis Center
01:20PM 36.8925 -83.0381 181° South 391 450 36,000  Level Indianapolis Center
01:21PM 36.7675 -83.0381 180° South 391 450 36,000  Level Indianapolis Center
01:22PM 36.6592 -83.0397 181° South 390 449 36,000  Level Indianapolis Center
01:23PM 36.5522 -83.0406 180° South 386 444 36,000  Level Indianapolis Center
01:24PM 36.4436 -83.0431 181° South 389 448 36,000  Level Indianapolis Center
01:25PM 36.3342 -83.0439 180° South 390 449 36,000 -420 Level Indianapolis Center
01:26PM 36.2061 -83.0458 181° South 393 452 35,200 -540 Descending Indianapolis Center
01:27PM 36.0953 -83.0481 181° South 397 457 35,000 -120 Descending Indianapolis Center
01:28PM 35.9833 -83.0500 181° South 399 459 35,000  Level Indianapolis Center
01:29PM 35.8731 -83.0508 180° South 395 455 35,000  Level Indianapolis Center
01:30PM 35.7631 -83.0572 183° South 394 453 35,000 -180 Level Indianapolis Center
01:31PM 35.6208 -83.1217 200° South 401 461 34,700 -540 Descending Atlanta Center
01:32PM 35.5192 -83.1711 202° Southwest 401 461 33,800 -960 Descending Atlanta Center
01:33PM 35.4150 -83.2233 202° Southwest 401 461 32,800 -960 Descending Atlanta Center
01:34PM 35.3214 -83.2675 201° Southwest 406 467 31,900 -960 Descending Atlanta Center
01:35PM 35.2133 -83.3167 200° South 413 475 30,900 -1,080 Descending Atlanta Center
01:36PM 35.0967 -83.3736 202° Southwest 418 481 29,800 -1,020 Descending Atlanta Center
01:37PM 34.9886 -83.4253 201° Southwest 413 475 28,900 -960 Descending Atlanta Center
01:38PM 34.8886 -83.4742 202° Southwest 422 486 27,900 -1,020 Descending Atlanta Center
01:39PM 34.7803 -83.5253 201° Southwest 422 486 26,900 -1,320 Descending Atlanta Center
01:40PM 34.6594 -83.5817 201° Southwest 428 493 25,300 -1,740 Descending Atlanta Center
01:41PM 34.5469 -83.6303 200° South 428 493 23,500 -1,800 Descending Atlanta Center
01:42PM 34.4408 -83.6836 203° Southwest 428 493 21,700 -1,800 Descending Atlanta Center
01:43PM 34.3364 -83.7319 201° Southwest 413 475 19,900 -1,800 Descending Atlanta Center
01:44PM 34.2344 -83.7800 201° Southwest 408 470 18,100 -2,040 Descending Atlanta Center
01:45PM 34.1322 -83.8256 200° South 403 464 15,900 -2,340 Descending Atlanta Center
01:46PM 34.0447 -83.8908 212° Southwest 381 438 13,500 -2,160 Descending Atlanta Center
01:47PM 33.9833 -83.9500 219° Southwest 358 412 12,200 -900 Descending Atlanta TRACON
01:48PM 33.9167 -84.0333 226° Southwest 359 413 12,000 -120 Descending Atlanta TRACON
01:49PM 33.8333 -84.1167 220° Southwest 329 379 12,000  Level Atlanta TRACON
01:50PM 33.7667 -84.1500 203° Southwest 277 319 12,000  Level Atlanta TRACON
01:51PM 33.7333 -84.2167 239° Southwest 287 330 12,000 -120 Level Atlanta TRACON
01:52PM 33.7333 -84.3167 270° West 265 305 11,800 -960 Descending Atlanta TRACON
01:53PM 33.7333 -84.4000 270° West 267 307 10,000 -1,860 Descending Atlanta TRACON
01:54PM 33.7333 -84.5000 270° West 255 293 8,000 -2,100 Descending Atlanta TRACON
01:55PM 33.7333 -84.5833 270° West 248 285 5,800 -1,500 Descending Atlanta TRACON
01:56PM 33.7333 -84.6667 270° West 246 283 5,000 -420 Descending Atlanta TRACON
01:57PM 33.7333 -84.7333 270° West 242 278 5,000  Level Atlanta TRACON
01:58PM 33.7333 -84.8167 270° West 245 282 5,000  Level Atlanta TRACON
01:59PM 33.7000 -84.8833 239° Southwest 229 264 5,000  Level Atlanta TRACON
02:00PM 33.6667 -84.8500 140° Southeast 200 230 5,000  Level Atlanta TRACON
02:01PM 33.6500 -84.7833 107° East 207 238 5,000  Level Atlanta TRACON
02:02PM 33.6500 -84.7167 90° East 203 234 5,000 -240 Level Atlanta TRACON
02:03PM 33.6500 -84.6500 90° East 199 229 4,600 -840 Descending Atlanta TRACON
02:04PM 33.6500 -84.5833 90° East 205 236 3,400 -1,080 Descending Atlanta TRACON
02:05PM 33.6500 -84.5333 90° East 178 205 2,500 -900 Descending Atlanta TRACON
02:06PM 33.6500 -84.4833 90° East 141 162 1,700 -840 Descending Atlanta TRACON
02:08PM 33.6367 -84.4279 64° Northeast  Level Estimated
02:15PM 33.6367 -84.4279 64° Northeast  Level Estimated
02:16PM 33.6367 -84.4279 64° Northeast  Level Estimated